sensor_id;sensor_type;location;lat;lon;timestamp;P1;durP1;ratioP1;P2;durP2;ratioP2
15120;SDS011;7661;48.904;9.414;2023-06-14T00:01:02;1.40;;;0.60;;
15120;SDS011;7661;48.904;9.414;2023-06-14T00:03:31;1.40;;;0.60;;
15120;SDS011;7661;48.904;9.414;2023-06-14T00:05:58;1.40;;;0.60;;
15120;SDS011;7661;48.904;9.414;2023-06-14T00:08:25;1.43;;;0.57;;
15120;SDS011;7661;48.904;9.414;2023-06-14T00:10:52;1.40;;;0.60;;
15120;SDS011;7661;48.904;9.414;2023-06-14T00:13:20;1.40;;;0.60;;
15120;SDS011;7661;48.904;9.414;2023-06-14T00:15:47;1.40;;;0.50;;
15120;SDS011;7661;48.904;9.414;2023-06-14T00:18:13;1.40;;;0.50;;
15120;SDS011;7661;48.904;9.414;2023-06-14T00:20:41;1.40;;;0.50;;
15120;SDS011;7661;48.904;9.414;2023-06-14T00:23:08;1.40;;;0.50;;
15120;SDS011;7661;48.904;9.414;2023-06-14T00:25:35;1.40;;;0.60;;
15120;SDS011;7661;48.904;9.414;2023-06-14T00:28:02;1.40;;;0.60;;
15120;SDS011;7661;48.904;9.414;2023-06-14T00:30:30;1.40;;;0.60;;
15120;SDS011;7661;48.904;9.414;2023-06-14T00:32:57;1.40;;;0.50;;
15120;SDS011;7661;48.904;9.414;2023-06-14T00:35:24;1.40;;;0.60;;
15120;SDS011;7661;48.904;9.414;2023-06-14T00:37:51;1.40;;;0.60;;
15120;SDS011;7661;48.904;9.414;2023-06-14T00:40:19;1.47;;;0.60;;
15120;SDS011;7661;48.904;9.414;2023-06-14T00:42:46;1.50;;;0.60;;
15120;SDS011;7661;48.904;9.414;2023-06-14T00:45:13;1.40;;;0.60;;
15120;SDS011;7661;48.904;9.414;2023-06-14T00:47:41;1.40;;;0.60;;
15120;SDS011;7661;48.904;9.414;2023-06-14T00:50:09;1.40;;;0.60;;
15120;SDS011;7661;48.904;9.414;2023-06-14T00:52:36;1.33;;;0.60;;
15120;SDS011;7661;48.904;9.414;2023-06-14T00:55:03;1.40;;;0.60;;
15120;SDS011;7661;48.904;9.414;2023-06-14T00:57:31;1.50;;;0.60;;
15120;SDS011;7661;48.904;9.414;2023-06-14T00:59:58;1.40;;;0.60;;
15120;SDS011;7661;48.904;9.414;2023-06-14T01:02:25;1.40;;;0.60;;
15120;SDS011;7661;48.904;9.414;2023-06-14T01:04:53;1.40;;;0.60;;
15120;SDS011;7661;48.904;9.414;2023-06-14T01:07:23;1.40;;;0.60;;
15120;SDS011;7661;48.904;9.414;2023-06-14T01:10:03;1.47;;;0.60;;
15120;SDS011;7661;48.904;9.414;2023-06-14T01:12:39;1.40;;;0.60;;
15120;SDS011;7661;48.904;9.414;2023-06-14T01:15:14;1.40;;;0.60;;
15120;SDS011;7661;48.904;9.414;2023-06-14T01:17:41;1.40;;;0.60;;
15120;SDS011;7661;48.904;9.414;2023-06-14T01:20:12;1.40;;;0.60;;
15120;SDS011;7661;48.904;9.414;2023-06-14T01:22:47;1.40;;;0.60;;
15120;SDS011;7661;48.904;9.414;2023-06-14T01:25:16;1.40;;;0.53;;
15120;SDS011;7661;48.904;9.414;2023-06-14T01:27:46;1.37;;;0.50;;
15120;SDS011;7661;48.904;9.414;2023-06-14T01:30:14;1.40;;;0.50;;
15120;SDS011;7661;48.904;9.414;2023-06-14T01:32:42;1.40;;;0.60;;
15120;SDS011;7661;48.904;9.414;2023-06-14T01:35:10;1.40;;;0.60;;
15120;SDS011;7661;48.904;9.414;2023-06-14T01:37:37;1.40;;;0.60;;
15120;SDS011;7661;48.904;9.414;2023-06-14T01:40:08;1.43;;;0.60;;
15120;SDS011;7661;48.904;9.414;2023-06-14T01:42:37;1.40;;;0.50;;
15120;SDS011;7661;48.904;9.414;2023-06-14T01:45:05;1.50;;;0.60;;
15120;SDS011;7661;48.904;9.414;2023-06-14T01:47:33;1.40;;;0.60;;
15120;SDS011;7661;48.904;9.414;2023-06-14T01:50:00;1.40;;;0.60;;
15120;SDS011;7661;48.904;9.414;2023-06-14T01:52:27;1.40;;;0.60;;
15120;SDS011;7661;48.904;9.414;2023-06-14T01:54:54;1.40;;;0.60;;
15120;SDS011;7661;48.904;9.414;2023-06-14T01:57:24;1.40;;;0.60;;
15120;SDS011;7661;48.904;9.414;2023-06-14T01:59:52;1.40;;;0.60;;
15120;SDS011;7661;48.904;9.414;2023-06-14T02:02:19;1.40;;;0.60;;
15120;SDS011;7661;48.904;9.414;2023-06-14T02:04:45;1.40;;;0.60;;
15120;SDS011;7661;48.904;9.414;2023-06-14T02:07:13;1.50;;;0.60;;
15120;SDS011;7661;48.904;9.414;2023-06-14T02:09:40;1.40;;;0.60;;
15120;SDS011;7661;48.904;9.414;2023-06-14T02:12:07;1.40;;;0.60;;
15120;SDS011;7661;48.904;9.414;2023-06-14T02:14:37;1.40;;;0.60;;
15120;SDS011;7661;48.904;9.414;2023-06-14T02:17:04;1.47;;;0.60;;
15120;SDS011;7661;48.904;9.414;2023-06-14T02:19:31;1.40;;;0.50;;
15120;SDS011;7661;48.904;9.414;2023-06-14T02:21:58;1.40;;;0.60;;
15120;SDS011;7661;48.904;9.414;2023-06-14T02:24:25;1.50;;;0.60;;
15120;SDS011;7661;48.904;9.414;2023-06-14T02:26:52;1.40;;;0.60;;
15120;SDS011;7661;48.904;9.414;2023-06-14T02:29:19;1.40;;;0.57;;
15120;SDS011;7661;48.904;9.414;2023-06-14T02:31:48;1.37;;;0.50;;
15120;SDS011;7661;48.904;9.414;2023-06-14T02:34:15;1.40;;;0.60;;
15120;SDS011;7661;48.904;9.414;2023-06-14T02:36:43;1.50;;;0.70;;
15120;SDS011;7661;48.904;9.414;2023-06-14T02:39:10;1.40;;;0.60;;
15120;SDS011;7661;48.904;9.414;2023-06-14T02:41:36;1.40;;;0.60;;
15120;SDS011;7661;48.904;9.414;2023-06-14T02:44:04;1.40;;;0.60;;
15120;SDS011;7661;48.904;9.414;2023-06-14T02:46:31;1.50;;;0.60;;
15120;SDS011;7661;48.904;9.414;2023-06-14T02:48:59;1.40;;;0.60;;
15120;SDS011;7661;48.904;9.414;2023-06-14T02:51:26;1.40;;;0.50;;
15120;SDS011;7661;48.904;9.414;2023-06-14T02:53:53;1.40;;;0.60;;
15120;SDS011;7661;48.904;9.414;2023-06-14T02:56:20;1.30;;;0.50;;
15120;SDS011;7661;48.904;9.414;2023-06-14T02:58:47;1.40;;;0.57;;
15120;SDS011;7661;48.904;9.414;2023-06-14T03:01:15;1.33;;;0.60;;
15120;SDS011;7661;48.904;9.414;2023-06-14T03:03:43;1.40;;;0.60;;
15120;SDS011;7661;48.904;9.414;2023-06-14T03:06:11;1.40;;;0.50;;
15120;SDS011;7661;48.904;9.414;2023-06-14T03:08:39;1.40;;;0.50;;
15120;SDS011;7661;48.904;9.414;2023-06-14T03:11:06;1.40;;;0.60;;
15120;SDS011;7661;48.904;9.414;2023-06-14T03:13:33;1.40;;;0.60;;
15120;SDS011;7661;48.904;9.414;2023-06-14T03:16:00;1.40;;;0.60;;
15120;SDS011;7661;48.904;9.414;2023-06-14T03:18:29;1.37;;;0.50;;
15120;SDS011;7661;48.904;9.414;2023-06-14T03:21:00;1.40;;;0.60;;
15120;SDS011;7661;48.904;9.414;2023-06-14T03:23:29;1.40;;;0.60;;
15120;SDS011;7661;48.904;9.414;2023-06-14T03:25:56;1.40;;;0.60;;
15120;SDS011;7661;48.904;9.414;2023-06-14T03:28:23;1.40;;;0.60;;
15120;SDS011;7661;48.904;9.414;2023-06-14T03:30:50;1.40;;;0.60;;
15120;SDS011;7661;48.904;9.414;2023-06-14T03:33:17;1.40;;;0.60;;
15120;SDS011;7661;48.904;9.414;2023-06-14T03:35:44;1.40;;;0.50;;
15120;SDS011;7661;48.904;9.414;2023-06-14T03:38:11;1.40;;;0.60;;
15120;SDS011;7661;48.904;9.414;2023-06-14T03:40:40;1.40;;;0.60;;
15120;SDS011;7661;48.904;9.414;2023-06-14T03:43:07;1.40;;;0.60;;
15120;SDS011;7661;48.904;9.414;2023-06-14T03:45:33;1.40;;;0.60;;
15120;SDS011;7661;48.904;9.414;2023-06-14T03:48:00;1.40;;;0.60;;
15120;SDS011;7661;48.904;9.414;2023-06-14T03:50:27;1.40;;;0.57;;
15120;SDS011;7661;48.904;9.414;2023-06-14T03:52:54;1.40;;;0.53;;
15120;SDS011;7661;48.904;9.414;2023-06-14T03:55:21;1.50;;;0.60;;
15120;SDS011;7661;48.904;9.414;2023-06-14T03:57:51;1.40;;;0.50;;
15120;SDS011;7661;48.904;9.414;2023-06-14T04:00:18;1.40;;;0.53;;
15120;SDS011;7661;48.904;9.414;2023-06-14T04:02:45;1.40;;;0.60;;
15120;SDS011;7661;48.904;9.414;2023-06-14T04:05:12;1.40;;;0.60;;
15120;SDS011;7661;48.904;9.414;2023-06-14T04:07:41;1.40;;;0.60;;
15120;SDS011;7661;48.904;9.414;2023-06-14T04:10:10;1.40;;;0.50;;
15120;SDS011;7661;48.904;9.414;2023-06-14T04:12:38;1.40;;;0.60;;
15120;SDS011;7661;48.904;9.414;2023-06-14T04:15:07;1.40;;;0.60;;
15120;SDS011;7661;48.904;9.414;2023-06-14T04:17:35;1.40;;;0.60;;
15120;SDS011;7661;48.904;9.414;2023-06-14T04:20:03;1.40;;;0.60;;
15120;SDS011;7661;48.904;9.414;2023-06-14T04:22:32;1.33;;;0.60;;
15120;SDS011;7661;48.904;9.414;2023-06-14T04:24:59;1.40;;;0.60;;
15120;SDS011;7661;48.904;9.414;2023-06-14T04:27:26;1.40;;;0.60;;
15120;SDS011;7661;48.904;9.414;2023-06-14T04:29:56;1.40;;;0.60;;
15120;SDS011;7661;48.904;9.414;2023-06-14T04:32:26;1.40;;;0.60;;
15120;SDS011;7661;48.904;9.414;2023-06-14T04:34:54;1.30;;;0.50;;
15120;SDS011;7661;48.904;9.414;2023-06-14T04:37:22;1.40;;;0.50;;
15120;SDS011;7661;48.904;9.414;2023-06-14T04:39:49;1.40;;;0.50;;
15120;SDS011;7661;48.904;9.414;2023-06-14T04:42:16;1.40;;;0.60;;
15120;SDS011;7661;48.904;9.414;2023-06-14T04:44:45;1.30;;;0.53;;
15120;SDS011;7661;48.904;9.414;2023-06-14T04:47:13;1.40;;;0.60;;
15120;SDS011;7661;48.904;9.414;2023-06-14T04:49:42;1.40;;;0.60;;
15120;SDS011;7661;48.904;9.414;2023-06-14T04:52:09;1.30;;;0.60;;
15120;SDS011;7661;48.904;9.414;2023-06-14T04:54:38;1.40;;;0.60;;
15120;SDS011;7661;48.904;9.414;2023-06-14T04:57:07;1.30;;;0.50;;
15120;SDS011;7661;48.904;9.414;2023-06-14T04:59:39;1.33;;;0.60;;
15120;SDS011;7661;48.904;9.414;2023-06-14T05:02:06;1.40;;;0.60;;
15120;SDS011;7661;48.904;9.414;2023-06-14T05:04:33;1.40;;;0.60;;
15120;SDS011;7661;48.904;9.414;2023-06-14T05:07:06;1.40;;;0.60;;
15120;SDS011;7661;48.904;9.414;2023-06-14T05:09:33;1.37;;;0.60;;
15120;SDS011;7661;48.904;9.414;2023-06-14T05:12:00;1.33;;;0.60;;
15120;SDS011;7661;48.904;9.414;2023-06-14T05:14:27;1.30;;;0.50;;
15120;SDS011;7661;48.904;9.414;2023-06-14T05:16:54;1.40;;;0.60;;
15120;SDS011;7661;48.904;9.414;2023-06-14T05:19:22;1.33;;;0.50;;
15120;SDS011;7661;48.904;9.414;2023-06-14T05:21:49;1.40;;;0.57;;
15120;SDS011;7661;48.904;9.414;2023-06-14T05:24:17;1.40;;;0.60;;
15120;SDS011;7661;48.904;9.414;2023-06-14T05:26:44;1.33;;;0.60;;
15120;SDS011;7661;48.904;9.414;2023-06-14T05:29:11;1.30;;;0.60;;
15120;SDS011;7661;48.904;9.414;2023-06-14T05:31:38;1.40;;;0.60;;
15120;SDS011;7661;48.904;9.414;2023-06-14T05:34:05;1.40;;;0.53;;
15120;SDS011;7661;48.904;9.414;2023-06-14T05:36:32;1.40;;;0.57;;
15120;SDS011;7661;48.904;9.414;2023-06-14T05:38:59;1.40;;;0.60;;
15120;SDS011;7661;48.904;9.414;2023-06-14T05:41:29;1.30;;;0.50;;
15120;SDS011;7661;48.904;9.414;2023-06-14T05:43:56;1.40;;;0.60;;
15120;SDS011;7661;48.904;9.414;2023-06-14T05:46:25;1.40;;;0.60;;
15120;SDS011;7661;48.904;9.414;2023-06-14T05:48:52;1.40;;;0.60;;
15120;SDS011;7661;48.904;9.414;2023-06-14T05:51:19;1.37;;;0.60;;
15120;SDS011;7661;48.904;9.414;2023-06-14T05:53:47;1.30;;;0.50;;
15120;SDS011;7661;48.904;9.414;2023-06-14T05:56:14;1.30;;;0.60;;
15120;SDS011;7661;48.904;9.414;2023-06-14T05:58:44;1.37;;;0.60;;
15120;SDS011;7661;48.904;9.414;2023-06-14T06:01:10;1.40;;;0.60;;
15120;SDS011;7661;48.904;9.414;2023-06-14T06:03:38;1.33;;;0.60;;
15120;SDS011;7661;48.904;9.414;2023-06-14T06:06:05;1.40;;;0.60;;
15120;SDS011;7661;48.904;9.414;2023-06-14T06:08:33;1.40;;;0.60;;
15120;SDS011;7661;48.904;9.414;2023-06-14T06:11:00;1.40;;;0.60;;
15120;SDS011;7661;48.904;9.414;2023-06-14T06:13:27;1.40;;;0.60;;
15120;SDS011;7661;48.904;9.414;2023-06-14T06:15:55;1.40;;;0.50;;
15120;SDS011;7661;48.904;9.414;2023-06-14T06:18:22;1.30;;;0.50;;
15120;SDS011;7661;48.904;9.414;2023-06-14T06:20:49;1.40;;;0.50;;
15120;SDS011;7661;48.904;9.414;2023-06-14T06:23:16;1.40;;;0.60;;
15120;SDS011;7661;48.904;9.414;2023-06-14T06:25:43;1.30;;;0.50;;
15120;SDS011;7661;48.904;9.414;2023-06-14T06:28:10;1.40;;;0.60;;
15120;SDS011;7661;48.904;9.414;2023-06-14T06:30:37;1.40;;;0.60;;
15120;SDS011;7661;48.904;9.414;2023-06-14T06:33:05;1.40;;;0.60;;
15120;SDS011;7661;48.904;9.414;2023-06-14T06:35:32;1.40;;;0.60;;
15120;SDS011;7661;48.904;9.414;2023-06-14T06:37:59;1.30;;;0.50;;
15120;SDS011;7661;48.904;9.414;2023-06-14T06:40:26;1.30;;;0.53;;
15120;SDS011;7661;48.904;9.414;2023-06-14T06:42:53;1.30;;;0.50;;
15120;SDS011;7661;48.904;9.414;2023-06-14T06:45:20;1.30;;;0.50;;
15120;SDS011;7661;48.904;9.414;2023-06-14T06:47:48;1.40;;;0.57;;
15120;SDS011;7661;48.904;9.414;2023-06-14T06:50:17;1.33;;;0.60;;
15120;SDS011;7661;48.904;9.414;2023-06-14T06:52:45;1.30;;;0.50;;
15120;SDS011;7661;48.904;9.414;2023-06-14T06:55:11;1.40;;;0.50;;
15120;SDS011;7661;48.904;9.414;2023-06-14T06:57:38;1.40;;;0.60;;
15120;SDS011;7661;48.904;9.414;2023-06-14T07:00:06;1.40;;;0.60;;
15120;SDS011;7661;48.904;9.414;2023-06-14T07:02:34;1.40;;;0.50;;
15120;SDS011;7661;48.904;9.414;2023-06-14T07:05:01;1.37;;;0.53;;
15120;SDS011;7661;48.904;9.414;2023-06-14T07:07:30;1.40;;;0.50;;
15120;SDS011;7661;48.904;9.414;2023-06-14T07:09:57;1.40;;;0.50;;
15120;SDS011;7661;48.904;9.414;2023-06-14T07:12:25;1.30;;;0.50;;
15120;SDS011;7661;48.904;9.414;2023-06-14T07:14:52;1.40;;;0.50;;
15120;SDS011;7661;48.904;9.414;2023-06-14T07:17:19;1.40;;;0.60;;
15120;SDS011;7661;48.904;9.414;2023-06-14T07:19:45;1.40;;;0.60;;
15120;SDS011;7661;48.904;9.414;2023-06-14T07:22:12;1.40;;;0.60;;
15120;SDS011;7661;48.904;9.414;2023-06-14T07:24:41;1.40;;;0.50;;
15120;SDS011;7661;48.904;9.414;2023-06-14T07:27:07;1.30;;;0.50;;
15120;SDS011;7661;48.904;9.414;2023-06-14T07:29:35;1.40;;;0.50;;
15120;SDS011;7661;48.904;9.414;2023-06-14T07:32:01;1.40;;;0.50;;
15120;SDS011;7661;48.904;9.414;2023-06-14T07:34:29;1.30;;;0.50;;
15120;SDS011;7661;48.904;9.414;2023-06-14T07:36:55;1.40;;;0.50;;
15120;SDS011;7661;48.904;9.414;2023-06-14T07:39:22;1.40;;;0.60;;
15120;SDS011;7661;48.904;9.414;2023-06-14T07:41:50;1.33;;;0.50;;
15120;SDS011;7661;48.904;9.414;2023-06-14T07:44:17;1.40;;;0.60;;
15120;SDS011;7661;48.904;9.414;2023-06-14T07:46:44;1.37;;;0.50;;
15120;SDS011;7661;48.904;9.414;2023-06-14T07:49:14;1.40;;;0.60;;
15120;SDS011;7661;48.904;9.414;2023-06-14T07:51:41;1.30;;;0.50;;
15120;SDS011;7661;48.904;9.414;2023-06-14T07:54:09;1.40;;;0.60;;
15120;SDS011;7661;48.904;9.414;2023-06-14T07:56:36;1.30;;;0.50;;
15120;SDS011;7661;48.904;9.414;2023-06-14T07:59:04;1.30;;;0.50;;
15120;SDS011;7661;48.904;9.414;2023-06-14T08:01:32;1.37;;;0.50;;
15120;SDS011;7661;48.904;9.414;2023-06-14T08:03:59;1.23;;;0.50;;
15120;SDS011;7661;48.904;9.414;2023-06-14T08:06:26;1.30;;;0.50;;
15120;SDS011;7661;48.904;9.414;2023-06-14T08:08:53;1.30;;;0.60;;
15120;SDS011;7661;48.904;9.414;2023-06-14T08:11:20;1.30;;;0.50;;
15120;SDS011;7661;48.904;9.414;2023-06-14T08:13:49;1.30;;;0.50;;
15120;SDS011;7661;48.904;9.414;2023-06-14T08:16:17;1.40;;;0.50;;
15120;SDS011;7661;48.904;9.414;2023-06-14T08:18:44;1.30;;;0.50;;
15120;SDS011;7661;48.904;9.414;2023-06-14T08:21:11;1.23;;;0.50;;
15120;SDS011;7661;48.904;9.414;2023-06-14T08:23:39;1.20;;;0.50;;
15120;SDS011;7661;48.904;9.414;2023-06-14T08:26:07;1.30;;;0.53;;
15120;SDS011;7661;48.904;9.414;2023-06-14T08:28:34;1.20;;;0.50;;
15120;SDS011;7661;48.904;9.414;2023-06-14T08:31:01;1.20;;;0.50;;
15120;SDS011;7661;48.904;9.414;2023-06-14T08:33:30;1.20;;;0.50;;
15120;SDS011;7661;48.904;9.414;2023-06-14T08:35:58;1.30;;;0.60;;
15120;SDS011;7661;48.904;9.414;2023-06-14T08:38:25;1.20;;;0.50;;
15120;SDS011;7661;48.904;9.414;2023-06-14T08:40:52;1.20;;;0.50;;
15120;SDS011;7661;48.904;9.414;2023-06-14T08:43:23;1.20;;;0.50;;
15120;SDS011;7661;48.904;9.414;2023-06-14T08:45:51;1.20;;;0.50;;
15120;SDS011;7661;48.904;9.414;2023-06-14T08:48:25;1.20;;;0.50;;
15120;SDS011;7661;48.904;9.414;2023-06-14T08:50:54;1.20;;;0.50;;
15120;SDS011;7661;48.904;9.414;2023-06-14T08:53:26;1.20;;;0.50;;
15120;SDS011;7661;48.904;9.414;2023-06-14T08:55:57;1.27;;;0.57;;
15120;SDS011;7661;48.904;9.414;2023-06-14T08:58:26;1.20;;;0.50;;
15120;SDS011;7661;48.904;9.414;2023-06-14T09:00:54;1.20;;;0.50;;
15120;SDS011;7661;48.904;9.414;2023-06-14T09:03:22;1.20;;;0.50;;
15120;SDS011;7661;48.904;9.414;2023-06-14T09:05:56;1.20;;;0.50;;
15120;SDS011;7661;48.904;9.414;2023-06-14T09:08:24;1.20;;;0.50;;
15120;SDS011;7661;48.904;9.414;2023-06-14T09:10:51;1.17;;;0.50;;
15120;SDS011;7661;48.904;9.414;2023-06-14T09:13:20;1.20;;;0.50;;
15120;SDS011;7661;48.904;9.414;2023-06-14T09:15:46;1.20;;;0.50;;
15120;SDS011;7661;48.904;9.414;2023-06-14T09:18:13;1.20;;;0.50;;
15120;SDS011;7661;48.904;9.414;2023-06-14T09:20:40;1.20;;;0.50;;
15120;SDS011;7661;48.904;9.414;2023-06-14T09:23:10;1.20;;;0.50;;
15120;SDS011;7661;48.904;9.414;2023-06-14T09:25:43;1.20;;;0.50;;
15120;SDS011;7661;48.904;9.414;2023-06-14T09:28:12;1.13;;;0.50;;
15120;SDS011;7661;48.904;9.414;2023-06-14T09:30:42;1.17;;;0.50;;
15120;SDS011;7661;48.904;9.414;2023-06-14T09:33:16;1.20;;;0.50;;
15120;SDS011;7661;48.904;9.414;2023-06-14T09:35:44;1.20;;;0.50;;
15120;SDS011;7661;48.904;9.414;2023-06-14T09:38:13;1.20;;;0.50;;
15120;SDS011;7661;48.904;9.414;2023-06-14T09:40:40;1.20;;;0.50;;
15120;SDS011;7661;48.904;9.414;2023-06-14T09:43:07;1.13;;;0.50;;
15120;SDS011;7661;48.904;9.414;2023-06-14T09:45:35;1.10;;;0.50;;
15120;SDS011;7661;48.904;9.414;2023-06-14T09:48:04;1.17;;;0.50;;
15120;SDS011;7661;48.904;9.414;2023-06-14T09:50:32;1.10;;;0.50;;
15120;SDS011;7661;48.904;9.414;2023-06-14T09:53:00;1.10;;;0.50;;
15120;SDS011;7661;48.904;9.414;2023-06-14T09:55:33;1.10;;;0.50;;
15120;SDS011;7661;48.904;9.414;2023-06-14T09:58:03;1.10;;;0.50;;
15120;SDS011;7661;48.904;9.414;2023-06-14T10:00:31;1.10;;;0.50;;
15120;SDS011;7661;48.904;9.414;2023-06-14T10:03:00;1.10;;;0.50;;
15120;SDS011;7661;48.904;9.414;2023-06-14T10:05:35;1.10;;;0.50;;
15120;SDS011;7661;48.904;9.414;2023-06-14T10:08:04;1.10;;;0.50;;
15120;SDS011;7661;48.904;9.414;2023-06-14T10:10:35;1.10;;;0.50;;
15120;SDS011;7661;48.904;9.414;2023-06-14T10:13:04;1.10;;;0.50;;
15120;SDS011;7661;48.904;9.414;2023-06-14T10:15:32;1.10;;;0.50;;
15120;SDS011;7661;48.904;9.414;2023-06-14T10:18:07;1.10;;;0.50;;
15120;SDS011;7661;48.904;9.414;2023-06-14T10:20:41;1.10;;;0.50;;
15120;SDS011;7661;48.904;9.414;2023-06-14T10:23:16;1.10;;;0.50;;
15120;SDS011;7661;48.904;9.414;2023-06-14T10:25:49;1.10;;;0.50;;
15120;SDS011;7661;48.904;9.414;2023-06-14T10:28:17;1.10;;;0.50;;
15120;SDS011;7661;48.904;9.414;2023-06-14T10:31:06;1.10;;;0.50;;
15120;SDS011;7661;48.904;9.414;2023-06-14T10:33:34;1.10;;;0.50;;
15120;SDS011;7661;48.904;9.414;2023-06-14T10:38:56;1.10;;;0.50;;
15120;SDS011;7661;48.904;9.414;2023-06-14T10:41:26;1.10;;;0.50;;
15120;SDS011;7661;48.904;9.414;2023-06-14T10:46:54;1.10;;;0.50;;
15120;SDS011;7661;48.904;9.414;2023-06-14T10:49:36;1.10;;;0.50;;
15120;SDS011;7661;48.904;9.414;2023-06-14T10:52:07;1.10;;;0.50;;
15120;SDS011;7661;48.904;9.414;2023-06-14T10:54:54;1.10;;;0.50;;
15120;SDS011;7661;48.904;9.414;2023-06-14T10:57:32;1.00;;;0.47;;
15120;SDS011;7661;48.904;9.414;2023-06-14T11:00:00;1.10;;;0.50;;
15120;SDS011;7661;48.904;9.414;2023-06-14T11:05:42;1.00;;;0.50;;
15120;SDS011;7661;48.904;9.414;2023-06-14T11:08:19;1.00;;;0.47;;
15120;SDS011;7661;48.904;9.414;2023-06-14T11:11:17;1.00;;;0.50;;
15120;SDS011;7661;48.904;9.414;2023-06-14T11:13:49;0.90;;;0.50;;
15120;SDS011;7661;48.904;9.414;2023-06-14T11:16:17;0.90;;;0.50;;
15120;SDS011;7661;48.904;9.414;2023-06-14T11:18:45;0.90;;;0.50;;
15120;SDS011;7661;48.904;9.414;2023-06-14T11:21:15;0.90;;;0.43;;
15120;SDS011;7661;48.904;9.414;2023-06-14T11:23:43;0.90;;;0.50;;
15120;SDS011;7661;48.904;9.414;2023-06-14T11:26:15;0.90;;;0.40;;
15120;SDS011;7661;48.904;9.414;2023-06-14T11:28:54;0.90;;;0.40;;
15120;SDS011;7661;48.904;9.414;2023-06-14T11:31:22;0.90;;;0.50;;
15120;SDS011;7661;48.904;9.414;2023-06-14T11:33:50;1.00;;;0.50;;
15120;SDS011;7661;48.904;9.414;2023-06-14T11:36:17;0.90;;;0.40;;
15120;SDS011;7661;48.904;9.414;2023-06-14T11:38:44;0.90;;;0.40;;
15120;SDS011;7661;48.904;9.414;2023-06-14T11:41:10;0.90;;;0.50;;
15120;SDS011;7661;48.904;9.414;2023-06-14T11:43:37;0.90;;;0.40;;
15120;SDS011;7661;48.904;9.414;2023-06-14T11:46:13;1.00;;;0.50;;
15120;SDS011;7661;48.904;9.414;2023-06-14T11:48:42;0.93;;;0.50;;
15120;SDS011;7661;48.904;9.414;2023-06-14T11:51:10;0.90;;;0.50;;
15120;SDS011;7661;48.904;9.414;2023-06-14T11:53:37;0.90;;;0.50;;
15120;SDS011;7661;48.904;9.414;2023-06-14T11:56:04;0.90;;;0.50;;
15120;SDS011;7661;48.904;9.414;2023-06-14T11:58:31;0.90;;;0.50;;
15120;SDS011;7661;48.904;9.414;2023-06-14T12:00:58;0.90;;;0.50;;
15120;SDS011;7661;48.904;9.414;2023-06-14T12:03:27;0.90;;;0.50;;
15120;SDS011;7661;48.904;9.414;2023-06-14T12:06:04;0.90;;;0.50;;
15120;SDS011;7661;48.904;9.414;2023-06-14T12:08:32;0.90;;;0.50;;
15120;SDS011;7661;48.904;9.414;2023-06-14T12:11:03;0.90;;;0.50;;
15120;SDS011;7661;48.904;9.414;2023-06-14T12:13:30;0.80;;;0.50;;
15120;SDS011;7661;48.904;9.414;2023-06-14T12:15:57;0.80;;;0.47;;
15120;SDS011;7661;48.904;9.414;2023-06-14T12:18:32;0.80;;;0.40;;
15120;SDS011;7661;48.904;9.414;2023-06-14T12:21:00;0.80;;;0.40;;
15120;SDS011;7661;48.904;9.414;2023-06-14T12:23:40;0.80;;;0.40;;
15120;SDS011;7661;48.904;9.414;2023-06-14T12:26:09;0.87;;;0.40;;
15120;SDS011;7661;48.904;9.414;2023-06-14T12:28:35;0.90;;;0.50;;
15120;SDS011;7661;48.904;9.414;2023-06-14T12:31:02;0.90;;;0.47;;
15120;SDS011;7661;48.904;9.414;2023-06-14T12:33:29;0.90;;;0.47;;
15120;SDS011;7661;48.904;9.414;2023-06-14T12:35:58;0.90;;;0.40;;
15120;SDS011;7661;48.904;9.414;2023-06-14T12:38:24;0.90;;;0.43;;
15120;SDS011;7661;48.904;9.414;2023-06-14T12:40:51;1.00;;;0.50;;
15120;SDS011;7661;48.904;9.414;2023-06-14T12:43:18;0.93;;;0.50;;
15120;SDS011;7661;48.904;9.414;2023-06-14T12:45:45;1.00;;;0.50;;
15120;SDS011;7661;48.904;9.414;2023-06-14T12:48:12;0.90;;;0.50;;
15120;SDS011;7661;48.904;9.414;2023-06-14T12:50:39;0.90;;;0.50;;
15120;SDS011;7661;48.904;9.414;2023-06-14T12:53:07;0.90;;;0.50;;
15120;SDS011;7661;48.904;9.414;2023-06-14T12:55:34;0.90;;;0.50;;
15120;SDS011;7661;48.904;9.414;2023-06-14T12:58:01;0.90;;;0.50;;
15120;SDS011;7661;48.904;9.414;2023-06-14T13:00:28;0.90;;;0.40;;
15120;SDS011;7661;48.904;9.414;2023-06-14T13:02:56;0.90;;;0.40;;
15120;SDS011;7661;48.904;9.414;2023-06-14T13:05:22;0.80;;;0.47;;
15120;SDS011;7661;48.904;9.414;2023-06-14T13:07:50;0.80;;;0.40;;
15120;SDS011;7661;48.904;9.414;2023-06-14T13:10:18;0.87;;;0.50;;
15120;SDS011;7661;48.904;9.414;2023-06-14T13:12:45;0.90;;;0.50;;
15120;SDS011;7661;48.904;9.414;2023-06-14T13:15:12;0.80;;;0.47;;
15120;SDS011;7661;48.904;9.414;2023-06-14T13:17:40;0.80;;;0.40;;
15120;SDS011;7661;48.904;9.414;2023-06-14T13:20:09;0.80;;;0.50;;
15120;SDS011;7661;48.904;9.414;2023-06-14T13:22:36;0.80;;;0.50;;
15120;SDS011;7661;48.904;9.414;2023-06-14T13:25:05;0.80;;;0.50;;
15120;SDS011;7661;48.904;9.414;2023-06-14T13:27:34;0.80;;;0.50;;
15120;SDS011;7661;48.904;9.414;2023-06-14T13:30:01;0.90;;;0.50;;
15120;SDS011;7661;48.904;9.414;2023-06-14T13:32:30;0.90;;;0.47;;
15120;SDS011;7661;48.904;9.414;2023-06-14T13:34:57;0.90;;;0.50;;
15120;SDS011;7661;48.904;9.414;2023-06-14T13:37:25;0.90;;;0.50;;
15120;SDS011;7661;48.904;9.414;2023-06-14T13:39:52;0.90;;;0.50;;
15120;SDS011;7661;48.904;9.414;2023-06-14T13:42:18;0.90;;;0.50;;
15120;SDS011;7661;48.904;9.414;2023-06-14T13:44:47;0.90;;;0.50;;
15120;SDS011;7661;48.904;9.414;2023-06-14T13:47:14;0.90;;;0.50;;
15120;SDS011;7661;48.904;9.414;2023-06-14T13:49:41;0.90;;;0.50;;
15120;SDS011;7661;48.904;9.414;2023-06-14T13:52:11;0.90;;;0.50;;
15120;SDS011;7661;48.904;9.414;2023-06-14T13:54:38;1.00;;;0.50;;
15120;SDS011;7661;48.904;9.414;2023-06-14T13:57:08;1.00;;;0.50;;
15120;SDS011;7661;48.904;9.414;2023-06-14T13:59:37;1.00;;;0.50;;
15120;SDS011;7661;48.904;9.414;2023-06-14T14:02:06;1.00;;;0.50;;
15120;SDS011;7661;48.904;9.414;2023-06-14T14:04:33;1.00;;;0.50;;
15120;SDS011;7661;48.904;9.414;2023-06-14T14:07:01;1.00;;;0.50;;
15120;SDS011;7661;48.904;9.414;2023-06-14T14:09:28;1.00;;;0.50;;
15120;SDS011;7661;48.904;9.414;2023-06-14T14:11:55;1.00;;;0.40;;
15120;SDS011;7661;48.904;9.414;2023-06-14T14:14:22;1.00;;;0.50;;
15120;SDS011;7661;48.904;9.414;2023-06-14T14:16:50;1.00;;;0.50;;
15120;SDS011;7661;48.904;9.414;2023-06-14T14:19:20;1.00;;;0.50;;
15120;SDS011;7661;48.904;9.414;2023-06-14T14:21:48;1.00;;;0.50;;
15120;SDS011;7661;48.904;9.414;2023-06-14T14:24:15;1.00;;;0.50;;
15120;SDS011;7661;48.904;9.414;2023-06-14T14:26:42;1.00;;;0.50;;
15120;SDS011;7661;48.904;9.414;2023-06-14T14:29:09;0.90;;;0.43;;
15120;SDS011;7661;48.904;9.414;2023-06-14T14:31:37;0.90;;;0.50;;
15120;SDS011;7661;48.904;9.414;2023-06-14T14:34:04;0.90;;;0.40;;
15120;SDS011;7661;48.904;9.414;2023-06-14T14:36:33;0.90;;;0.40;;
15120;SDS011;7661;48.904;9.414;2023-06-14T14:39:02;0.90;;;0.40;;
15120;SDS011;7661;48.904;9.414;2023-06-14T14:41:29;0.90;;;0.50;;
15120;SDS011;7661;48.904;9.414;2023-06-14T14:43:57;0.90;;;0.50;;
15120;SDS011;7661;48.904;9.414;2023-06-14T14:46:25;0.90;;;0.40;;
15120;SDS011;7661;48.904;9.414;2023-06-14T14:48:53;0.90;;;0.50;;
15120;SDS011;7661;48.904;9.414;2023-06-14T14:51:20;0.90;;;0.50;;
15120;SDS011;7661;48.904;9.414;2023-06-14T14:53:48;0.90;;;0.40;;
15120;SDS011;7661;48.904;9.414;2023-06-14T14:56:16;1.00;;;0.50;;
15120;SDS011;7661;48.904;9.414;2023-06-14T14:58:43;0.90;;;0.50;;
15120;SDS011;7661;48.904;9.414;2023-06-14T15:01:10;0.90;;;0.50;;
15120;SDS011;7661;48.904;9.414;2023-06-14T15:03:37;1.00;;;0.53;;
15120;SDS011;7661;48.904;9.414;2023-06-14T15:06:04;0.90;;;0.50;;
15120;SDS011;7661;48.904;9.414;2023-06-14T15:08:31;0.90;;;0.50;;
15120;SDS011;7661;48.904;9.414;2023-06-14T15:10:59;0.90;;;0.50;;
15120;SDS011;7661;48.904;9.414;2023-06-14T15:13:27;0.87;;;0.50;;
15120;SDS011;7661;48.904;9.414;2023-06-14T15:15:54;0.90;;;0.50;;